Stations météo

réclame
Mon MeteoGroup
Southampton oceanography centre, Grande-Bretagne (99079): Température de l'air & dewpoint: 30.03.2020 20:00:00 - 05.04.2020 20:00:00 (BST)Southampton oceanography centre, Grande-Bretagne (99079): Vitesse du vent: 30.03.2020 20:00:00 - 05.04.2020 20:00:00 (BST)Southampton oceanography centre, Grande-Bretagne (99079): Direction du vent: 30.03.2020 20:00:00 - 05.04.2020 20:00:00 (BST)Southampton oceanography centre, Grande-Bretagne (99079): Quantités de précipitations: 30.03.2020 20:00:00 - 05.04.2020 20:00:00 (BST)
Date & Time tt [°C] td [°C] ff [km/h] ff [knt] dd rr [mm]
05.04.2020 20:00:00 15,1 7,0 21 11 SE -
05.04.2020 19:00:00 15,2 6,5 26 14 SE 0,0
05.04.2020 18:00:00 13,9 7,8 18 10 SSE 0,0
05.04.2020 17:00:00 15,9 7,0 24 13 SE 0,0
05.04.2020 16:00:00 16,2 7,3 21 11 SE 0,0
05.04.2020 15:00:00 15,2 6,5 13 7 ESE 0,0
05.04.2020 14:00:00 15,3 6,9 15 8 SE 0,0
05.04.2020 13:00:00 14,7 6,5 18 10 SE 0,0
05.04.2020 12:00:00 14,0 5,9 21 11 SE 0,0
05.04.2020 11:00:00 13,3 6,1 18 10 SE 0,0
05.04.2020 10:00:00 12,9 6,0 18 10 SE 0,0
05.04.2020 09:00:00 11,4 5,8 18 10 SE 0,0
05.04.2020 08:00:00 10,5 5,9 18 10 SE 0,0
05.04.2020 07:00:00 10,0 5,5 22 12 SE 0,0
05.04.2020 06:00:00 10,1 5,6 22 12 SE 0,0
05.04.2020 05:00:00 10,2 6,2 21 11 SE 0,0
05.04.2020 04:00:00 10,5 5,7 18 10 SE 0,0
05.04.2020 03:00:00 10,5 6,1 15 8 SE 0,0
05.04.2020 02:00:00 10,7 6,0 16 9 SE 0,0
05.04.2020 01:00:00 10,6 5,9 13 7 SE 0,0
05.04.2020 00:00:00 9,6 5,2 5 3 ESE 0,0
04.04.2020 23:00:00 10,2 4,8 9 5 ESE 0,0
04.04.2020 22:00:00 10,2 4,2 8 4 ESE 0,0
04.04.2020 21:00:00 10,6 3,6 9 5 ESE 0,0
04.04.2020 20:00:00 11,2 4,1 8 4 ESE 0,0
04.04.2020 19:00:00 10,9 5,2 16 9 SSE 0,0
04.04.2020 18:00:00 11,4 5,2 15 8 SSE 0,0
04.04.2020 17:00:00 12,1 4,2 18 10 SE 0,0
04.04.2020 16:00:00 12,3 5,1 21 11 SSE 0,0
04.04.2020 15:00:00 12,5 5,9 16 9 SE 0,0
04.04.2020 14:00:00 12,5 5,7 21 11 SE 0,0
04.04.2020 13:00:00 11,8 6,4 22 12 SE 0,0
04.04.2020 12:00:00 11,4 7,4 21 11 SE 0,0
04.04.2020 11:00:00 10,8 7,9 16 9 SE 0,0
04.04.2020 10:00:00 8,0 7,3 16 9 SE 0,0
04.04.2020 09:00:00 8,5 7,2 5 3 ESE 0,0
04.04.2020 08:00:00 8,3 6,9 5 3 E 0,0
04.04.2020 07:00:00 7,9 7,0 8 4 SSE 0,0
04.04.2020 06:00:00 8,0 7,7 9 5 SSE 0,0
04.04.2020 05:00:00 7,9 7,7 8 4 SSE 0,0
04.04.2020 04:00:00 7,2 7,0 5 3 S 0,0
04.04.2020 03:00:00 6,7 6,1 4 2 SSW 0,0
04.04.2020 02:00:00 7,0 6,1 5 3 SW 0,0
04.04.2020 01:00:00 7,7 6,0 5 3 SW 0,0
04.04.2020 00:00:00 8,0 5,9 5 3 SSW 0,0
03.04.2020 23:00:00 8,3 5,8 4 2 WSW 0,0
03.04.2020 22:00:00 9,0 6,0 5 3 WSW 0,0
03.04.2020 21:00:00 9,6 6,3 11 6 SSW 0,0
03.04.2020 20:00:00 10,9 6,4 11 6 SSW 0,0
03.04.2020 19:00:00 13,1 3,2 15 8 WNW 0,0
03.04.2020 18:00:00 13,1 2,8 16 9 W 0,0
03.04.2020 17:00:00 14,0 2,9 16 9 SW 0,0
03.04.2020 16:00:00 13,8 3,6 11 6 W 0,0
03.04.2020 15:00:00 13,3 3,6 13 7 WNW 0,0
03.04.2020 14:00:00 14,0 5,0 9 5 W 0,0
03.04.2020 13:00:00 12,1 3,7 9 5 WNW 0,0
03.04.2020 12:00:00 11,0 3,2 13 7 WNW 0,0
03.04.2020 11:00:00 10,8 3,8 9 5 WNW 0,0
03.04.2020 10:00:00 10,3 3,8 5 3 NNW 0,0
03.04.2020 09:00:00 9,4 6,4 8 4 NW 0,0
03.04.2020 08:00:00 8,9 7,2 8 4 NW 0,0
03.04.2020 07:00:00 8,6 7,1 8 4 NW 0,0
03.04.2020 06:00:00 8,6 7,1 9 5 NW 0,0
03.04.2020 05:00:00 9,0 6,7 9 5 W 0,0
03.04.2020 04:00:00 9,0 6,6 9 5 W 0,0
03.04.2020 03:00:00 9,1 6,5 8 4 W 0,0
03.04.2020 02:00:00 9,0 6,4 11 6 WNW 0,0
03.04.2020 01:00:00 8,7 6,4 16 9 WNW 0,0
03.04.2020 00:00:00 9,5 6,5 18 10 WNW 0,0
02.04.2020 23:00:00 10,0 6,2 16 9 WNW 0,0
02.04.2020 22:00:00 10,2 6,2 18 10 WNW 0,0
02.04.2020 21:00:00 10,7 6,1 18 10 WNW 0,0
02.04.2020 20:00:00 11,7 5,6 16 9 WNW 0,0
02.04.2020 19:00:00 11,9 6,4 21 11 WNW 0,0
02.04.2020 18:00:00 12,5 6,0 22 12 WNW 0,0
02.04.2020 17:00:00 13,4 5,9 26 14 W 0,0
02.04.2020 16:00:00 12,3 5,3 26 14 W 0,0
02.04.2020 15:00:00 12,4 4,8 18 10 WNW 0,0
02.04.2020 14:00:00 12,5 3,7 18 10 WNW 0,0
02.04.2020 13:00:00 12,6 3,0 18 10 W 0,0
02.04.2020 12:00:00 11,4 3,6 13 7 NW 0,0
02.04.2020 11:00:00 10,5 4,5 11 6 WNW 0,0
02.04.2020 10:00:00 8,5 3,7 13 7 WNW 0,0
02.04.2020 09:00:00 7,6 2,9 9 5 W 0,0
02.04.2020 08:00:00 6,8 2,5 8 4 W 0,0
02.04.2020 07:00:00 6,4 2,5 9 5 NW 0,0
02.04.2020 06:00:00 6,8 1,1 8 4 NW 0,0
02.04.2020 05:00:00 7,0 0,9 9 5 W 0,0
02.04.2020 04:00:00 7,1 1,1 11 6 WNW 0,0
02.04.2020 03:00:00 7,4 0,1 8 4 NNW 0,0
02.04.2020 02:00:00 7,4 0,8 11 6 NNW 0,0
02.04.2020 01:00:00 7,5 0,6 9 5 NW 0,0
02.04.2020 00:00:00 7,8 -0,6 8 4 NW 0,0
01.04.2020 23:00:00 8,2 -1,1 8 4 NNW 0,0
01.04.2020 22:00:00 8,2 -0,8 8 4 NNW 0,0
01.04.2020 21:00:00 8,4 -1,2 9 5 N 0,0
01.04.2020 20:00:00 8,5 -1,3 9 5 N 0,0
01.04.2020 19:00:00 8,8 -1,0 9 5 NNW 0,0
01.04.2020 18:00:00 9,0 -1,0 13 7 NNW 0,0
01.04.2020 17:00:00 9,3 -0,9 9 5 N 0,0
01.04.2020 16:00:00 9,4 -1,5 11 6 N 0,0
01.04.2020 15:00:00 9,8 -1,5 13 7 NNW 0,0
01.04.2020 14:00:00 9,5 -1,2 15 8 N 0,0
01.04.2020 13:00:00 10,6 -0,7 8 4 ENE 0,0
01.04.2020 12:00:00 9,3 -1,1 9 5 ENE 0,0
01.04.2020 11:00:00 8,5 -0,6 5 3 NE 0,0
01.04.2020 10:00:00 6,6 1,1 5 3 NNE 0,0
01.04.2020 09:00:00 3,7 -0,3 11 6 NNE 0,0
01.04.2020 08:00:00 1,9 -1,0 13 7 N 0,0
01.04.2020 07:00:00 1,4 -1,4 11 6 NNE 0,0
01.04.2020 06:00:00 1,5 -1,6 8 4 N 0,0
01.04.2020 05:00:00 1,8 -1,4 8 4 N 0,0
01.04.2020 04:00:00 2,3 -1,5 5 3 N 0,0
01.04.2020 03:00:00 2,9 -1,5 5 3 ENE 0,0
01.04.2020 02:00:00 3,5 -1,1 9 5 NE 0,0
01.04.2020 01:00:00 4,3 -1,2 8 4 NE 0,0
01.04.2020 00:00:00 5,3 -0,7 5 3 NE 0,0
31.03.2020 23:00:00 6,1 -0,2 5 3 ENE 0,0
31.03.2020 22:00:00 7,0 -0,1 8 4 ENE 0,0
31.03.2020 21:00:00 8,0 -0,3 5 3 ENE 0,0
31.03.2020 20:00:00 8,9 -0,8 8 4 ENE 0,0
31.03.2020 19:00:00 9,7 -1,1 11 6 ENE 0,0
31.03.2020 18:00:00 10,4 -1,2 13 7 ENE 0,0
31.03.2020 17:00:00 10,5 -0,9 11 6 ENE 0,0
31.03.2020 16:00:00 11,0 -1,3 11 6 NE 0,0
31.03.2020 15:00:00 10,7 -1,1 15 8 ENE 0,0
31.03.2020 14:00:00 9,7 -0,5 15 8 ENE 0,0
31.03.2020 13:00:00 9,1 0,2 16 9 ENE 0,0
31.03.2020 12:00:00 8,2 0,6 21 11 ENE 0,0
31.03.2020 11:00:00 7,8 1,4 16 9 ENE 0,0
31.03.2020 10:00:00 6,5 2,0 16 9 NE 0,0
31.03.2020 09:00:00 4,9 1,7 15 8 NE 0,0
31.03.2020 08:00:00 4,0 1,3 13 7 NNE 0,0
31.03.2020 07:00:00 3,5 1,1 13 7 NE 0,0
31.03.2020 06:00:00 3,6 1,2 11 6 NE 0,0
31.03.2020 05:00:00 4,2 1,5 13 7 NNE 0,0
31.03.2020 04:00:00 4,9 1,8 9 5 NE 0,0
31.03.2020 03:00:00 5,5 2,1 11 6 NNE 0,0
31.03.2020 02:00:00 5,5 2,4 13 7 NNE 0,0
31.03.2020 01:00:00 5,8 2,9 9 5 NE 0,0
31.03.2020 00:00:00 7,0 3,0 9 5 NE 0,0
30.03.2020 23:00:00 7,0 2,6 15 8 NE 0,0
30.03.2020 22:00:00 7,4 2,4 16 9 NNE 0,0
30.03.2020 21:00:00 8,2 1,1 13 7 NE 0,0
30.03.2020 20:00:00 8,7 0,9 16 9 NE 0,0

tt = Température de l'air
td = dewpoint
ff = Vitesse du vent
dd = Direction du vent
rr = Quantités de précipitations

stations d'obs. à proximité